createdAt,value
2018-07-02T00:01:43.643Z,13.75
2018-07-02T00:04:48.183Z,13.64
2018-07-02T00:07:52.927Z,13.58
2018-07-02T00:10:57.353Z,13.55
2018-07-02T00:14:01.776Z,13.53
2018-07-02T00:17:06.164Z,13.46
2018-07-02T00:20:10.620Z,13.51
2018-07-02T00:23:15.030Z,13.52
2018-07-02T00:26:19.513Z,13.45
2018-07-02T00:29:24.105Z,13.38
2018-07-02T00:32:28.482Z,13.28
2018-07-02T00:35:32.883Z,13.20
2018-07-02T00:38:37.213Z,13.15
2018-07-02T00:41:42.765Z,13.11
2018-07-02T00:44:47.182Z,13.05
2018-07-02T00:47:51.613Z,13.06
2018-07-02T00:50:56.010Z,13.07
2018-07-02T00:54:00.456Z,13.06
2018-07-02T00:57:04.888Z,13.03
2018-07-02T01:00:14.754Z,13.12
2018-07-02T01:03:19.198Z,13.20
2018-07-02T01:06:23.748Z,13.24
2018-07-02T01:09:28.301Z,13.23
2018-07-02T01:12:32.894Z,13.21
2018-07-02T01:15:37.253Z,13.16
2018-07-02T01:18:41.808Z,13.05
2018-07-02T01:21:46.262Z,12.96
2018-07-02T01:24:50.676Z,12.90
2018-07-02T01:27:55.166Z,12.86
2018-07-02T01:30:59.690Z,12.83
2018-07-02T01:34:04.165Z,12.83
2018-07-02T01:37:08.565Z,12.83
2018-07-02T01:40:12.951Z,12.83
2018-07-02T01:43:17.439Z,12.83
2018-07-02T01:46:21.866Z,12.82
2018-07-02T01:49:26.306Z,12.83
2018-07-02T01:52:30.699Z,12.84
2018-07-02T01:55:35.159Z,12.85
2018-07-02T01:58:39.514Z,12.80
2018-07-02T02:01:43.985Z,12.68
2018-07-02T02:04:48.308Z,12.57
2018-07-02T02:07:52.931Z,12.47
2018-07-02T02:10:57.346Z,12.44
2018-07-02T02:14:01.766Z,12.48
2018-07-02T02:17:06.498Z,12.55
2018-07-02T02:20:10.884Z,12.63
2018-07-02T02:23:15.275Z,12.69
2018-07-02T02:26:19.617Z,12.73
2018-07-02T02:29:23.936Z,12.69
2018-07-02T02:32:28.396Z,12.59
2018-07-02T02:35:32.684Z,12.50
2018-07-02T02:38:37.118Z,12.49
2018-07-02T02:41:41.546Z,12.53
2018-07-02T02:44:46.690Z,12.61
2018-07-02T02:47:51.027Z,12.64
2018-07-02T02:50:55.410Z,12.61
2018-07-02T02:53:59.735Z,12.61
2018-07-02T02:57:04.161Z,12.61
2018-07-02T03:00:08.486Z,12.59
2018-07-02T03:03:12.851Z,12.54
2018-07-02T03:06:17.224Z,12.45
2018-07-02T03:09:21.493Z,12.36
2018-07-02T03:12:25.860Z,12.34
2018-07-02T03:15:30.171Z,12.30
2018-07-02T03:18:34.412Z,12.32
2018-07-02T03:21:38.706Z,12.56
2018-07-02T03:24:43.101Z,12.92
2018-07-02T03:27:47.466Z,13.41
2018-07-02T03:30:51.751Z,13.78
2018-07-02T03:33:56.109Z,14.09
2018-07-02T03:37:00.423Z,14.34
2018-07-02T03:40:04.746Z,14.58
2018-07-02T03:43:09.066Z,14.69
2018-07-02T03:46:13.361Z,14.82
2018-07-02T03:49:17.709Z,15.03
2018-07-02T03:52:22.088Z,15.15
2018-07-02T03:55:26.532Z,15.28
2018-07-02T03:58:30.937Z,15.36
2018-07-02T04:01:35.224Z,15.50
2018-07-02T04:04:39.575Z,15.66
2018-07-02T04:07:43.868Z,15.82
2018-07-02T04:10:48.220Z,15.75
2018-07-02T04:13:52.566Z,15.74
2018-07-02T04:16:56.993Z,15.60
2018-07-02T04:20:01.310Z,15.26
2018-07-02T04:23:05.692Z,14.96
2018-07-02T04:26:10.113Z,14.68
2018-07-02T04:29:14.220Z,14.42
2018-07-02T04:32:18.523Z,14.29
2018-07-02T04:35:22.876Z,14.23
2018-07-02T04:38:27.202Z,14.18
2018-07-02T04:41:31.612Z,14.14
2018-07-02T04:44:36.046Z,14.18
2018-07-02T04:47:40.365Z,14.22
2018-07-02T04:50:44.788Z,14.31
2018-07-02T04:53:49.097Z,14.44
2018-07-02T04:56:53.450Z,14.53
2018-07-02T04:59:57.765Z,14.68
2018-07-02T05:03:02.094Z,14.78
2018-07-02T05:06:07.499Z,14.86
2018-07-02T05:09:12.078Z,14.93
2018-07-02T05:12:16.344Z,15.03
2018-07-02T05:15:20.805Z,15.07
2018-07-02T05:18:25.208Z,15.11
2018-07-02T05:21:29.511Z,15.20
2018-07-02T05:24:33.845Z,15.33
2018-07-02T05:27:38.180Z,15.48
2018-07-02T05:30:42.457Z,15.58
2018-07-02T05:33:46.794Z,15.75
2018-07-02T05:36:51.097Z,15.89
2018-07-02T05:39:55.447Z,16.00
2018-07-02T05:42:59.725Z,16.12
2018-07-02T05:46:04.041Z,16.19
2018-07-02T05:49:08.357Z,16.30
2018-07-02T05:52:12.692Z,16.43
2018-07-02T05:55:17.165Z,16.56
2018-07-02T05:58:21.485Z,16.66
2018-07-02T06:01:25.763Z,16.78
2018-07-02T06:04:30.084Z,16.87
2018-07-02T06:07:34.350Z,16.98
2018-07-02T06:10:38.624Z,17.09
2018-07-02T06:13:42.953Z,17.21
2018-07-02T06:16:47.261Z,17.33
2018-07-02T06:19:51.561Z,17.42
2018-07-02T06:22:56.149Z,17.52
2018-07-02T06:26:00.477Z,17.65
2018-07-02T06:29:04.753Z,17.75
2018-07-02T06:32:09.212Z,17.90
2018-07-02T06:35:13.494Z,17.99
2018-07-02T06:38:17.781Z,18.11
2018-07-02T06:41:22.191Z,18.22
2018-07-02T06:44:26.534Z,18.37
2018-07-02T06:47:30.936Z,18.51
2018-07-02T06:50:35.314Z,18.67
2018-07-02T06:53:39.751Z,18.74
2018-07-02T06:56:44.095Z,18.85
2018-07-02T06:59:48.503Z,18.97
2018-07-02T07:02:52.788Z,19.12
2018-07-02T07:05:57.127Z,19.23
2018-07-02T07:09:01.485Z,19.28
2018-07-02T07:12:05.831Z,19.36
2018-07-02T07:15:10.101Z,19.51
2018-07-02T07:18:14.461Z,19.61
2018-07-02T07:21:18.815Z,19.64
2018-07-02T07:24:23.112Z,19.75
2018-07-02T07:27:27.441Z,19.90
2018-07-02T07:30:31.824Z,20.00
2018-07-02T07:33:36.141Z,20.07
2018-07-02T07:36:40.520Z,20.12
2018-07-02T07:39:44.658Z,20.16
2018-07-02T07:42:48.948Z,20.22
2018-07-02T07:45:53.450Z,20.37
2018-07-02T07:48:57.762Z,20.33
2018-07-02T07:52:02.090Z,20.47
2018-07-02T07:55:06.228Z,20.56
2018-07-02T07:58:10.534Z,20.65
2018-07-02T08:01:15.016Z,20.68
2018-07-02T08:04:19.352Z,20.76
2018-07-02T08:07:23.798Z,20.93
2018-07-02T08:10:28.302Z,21.09
2018-07-02T08:13:32.640Z,21.18
2018-07-02T08:16:37.207Z,21.34
2018-07-02T08:19:41.539Z,21.42
2018-07-02T08:22:45.949Z,21.55
2018-07-02T08:25:50.550Z,21.69
2018-07-02T08:28:55.090Z,21.75
2018-07-02T08:31:59.533Z,21.76
2018-07-02T08:35:04.011Z,21.88
2018-07-02T08:38:08.618Z,21.82
2018-07-02T08:41:12.956Z,21.99
2018-07-02T08:44:17.269Z,22.18
2018-07-02T08:47:21.672Z,22.28
2018-07-02T08:50:26.037Z,22.30
2018-07-02T08:53:30.432Z,22.38
2018-07-02T08:56:34.884Z,22.55
2018-07-02T08:59:39.242Z,22.62
2018-07-02T09:02:43.674Z,22.81
2018-07-02T09:05:48.012Z,22.91
2018-07-02T09:08:52.434Z,22.87
2018-07-02T09:11:56.789Z,22.92
2018-07-02T09:15:01.177Z,23.00
2018-07-02T09:18:05.492Z,23.07
2018-07-02T09:21:10.018Z,23.15
2018-07-02T09:24:14.246Z,22.98
2018-07-02T09:27:18.789Z,23.03
2018-07-02T09:30:22.972Z,23.14
2018-07-02T09:33:27.285Z,23.18
2018-07-02T09:36:31.630Z,23.12
2018-07-02T09:39:36.003Z,23.14
2018-07-02T09:42:40.293Z,23.35
2018-07-02T09:45:44.978Z,23.47
2018-07-02T09:48:49.303Z,23.56
2018-07-02T09:51:53.723Z,23.54
2018-07-02T09:54:58.040Z,23.49
2018-07-02T09:58:02.508Z,23.44
2018-07-02T10:01:06.877Z,23.64
2018-07-02T10:04:11.198Z,23.93
2018-07-02T10:07:15.486Z,24.01
2018-07-02T10:10:19.946Z,23.91
2018-07-02T10:13:24.293Z,24.08
2018-07-02T10:16:28.896Z,24.28
2018-07-02T10:19:33.189Z,24.36
2018-07-02T10:22:37.529Z,24.47
2018-07-02T10:25:41.936Z,24.54
2018-07-02T10:28:47.439Z,24.33
2018-07-02T10:31:54.236Z,24.45
2018-07-02T10:35:00.828Z,24.45
2018-07-02T10:38:05.128Z,24.51
2018-07-02T10:41:09.590Z,24.47
2018-07-02T10:44:13.913Z,24.56
2018-07-02T10:47:21.829Z,24.54
2018-07-02T10:50:29.885Z,24.57
2018-07-02T10:53:34.186Z,24.63
2018-07-02T10:56:38.541Z,24.65
2018-07-02T10:59:43.478Z,24.59
2018-07-02T11:02:49.360Z,24.65
2018-07-02T11:05:56.450Z,24.76
2018-07-02T11:09:02.125Z,24.70
2018-07-02T11:12:09.569Z,24.54
2018-07-02T11:15:28.946Z,24.60
2018-07-02T11:18:47.604Z,24.67
2018-07-02T11:22:05.097Z,24.45
2018-07-02T11:25:30.261Z,24.59
2018-07-02T11:28:49.506Z,24.79
2018-07-02T11:32:00.769Z,24.91
2018-07-02T11:35:20.486Z,24.78
2018-07-02T11:38:32.686Z,24.88
2018-07-02T11:41:51.827Z,24.86
2018-07-02T11:45:11.357Z,24.89
2018-07-02T11:48:25.796Z,24.81
2018-07-02T11:51:47.482Z,24.76
2018-07-02T11:55:11.886Z,24.83
2018-07-02T11:58:28.175Z,24.91
2018-07-02T12:01:42.560Z,24.96
2018-07-02T12:05:10.044Z,25.23
2018-07-02T12:08:28.877Z,25.24
2018-07-02T12:11:49.512Z,25.24
2018-07-02T12:15:04.938Z,25.43
2018-07-02T12:19:09.311Z,25.47
2018-07-02T12:22:29.216Z,25.37
2018-07-02T12:25:41.771Z,25.31
2018-07-02T12:28:58.163Z,25.30
2018-07-02T12:35:34.297Z,25.30
2018-07-02T12:39:21.327Z,25.53
2018-07-02T12:46:57.236Z,25.44
2018-07-02T12:50:21.861Z,25.36
2018-07-02T12:53:47.078Z,25.22
2018-07-02T12:57:01.595Z,25.41
2018-07-02T13:00:22.908Z,25.52
2018-07-02T13:03:34.913Z,25.53
2018-07-02T13:06:50.337Z,25.55
2018-07-02T13:10:08.163Z,25.71
2018-07-02T13:13:25.524Z,25.94
2018-07-02T13:16:51.702Z,26.09
2018-07-02T13:33:09.382Z,26.06
2018-07-02T13:36:23.744Z,25.97
2018-07-02T13:39:39.656Z,25.90
2018-07-02T13:42:53.589Z,25.92
2018-07-02T13:46:10.179Z,25.85
2018-07-02T13:49:41.899Z,25.86
2018-07-02T13:53:22.198Z,25.71
2018-07-02T13:56:40.286Z,25.57
2018-07-02T13:59:54.201Z,25.67
2018-07-02T14:03:18.891Z,25.79
2018-07-02T14:06:39.866Z,25.99
2018-07-02T14:10:03.708Z,25.99
2018-07-02T14:13:34.408Z,26.08
2018-07-02T14:16:52.495Z,26.28
2018-07-02T14:20:10.905Z,26.06
2018-07-02T14:23:23.272Z,25.95
2018-07-02T14:26:44.002Z,25.95
2018-07-02T14:29:58.808Z,26.31
2018-07-02T14:33:33.382Z,26.37
2018-07-02T14:36:49.034Z,26.31
2018-07-02T14:40:03.091Z,26.24
2018-07-02T14:43:18.364Z,26.23
2018-07-02T14:46:33.109Z,26.24
2018-07-02T14:49:42.047Z,26.32
2018-07-02T14:53:12.961Z,26.29
2018-07-02T14:56:27.613Z,26.30
2018-07-02T14:59:43.806Z,26.28
2018-07-02T15:03:03.620Z,26.32
2018-07-02T15:06:26.888Z,26.61
2018-07-02T15:13:19.854Z,27.17
2018-07-02T15:16:37.393Z,27.56
2018-07-02T15:19:57.359Z,28.04
2018-07-02T15:23:15.006Z,28.40
2018-07-02T15:26:36.923Z,28.31
2018-07-02T15:29:46.750Z,27.49
2018-07-02T15:33:06.075Z,26.76
2018-07-02T15:43:17.180Z,25.72
2018-07-02T15:46:32.773Z,25.54
2018-07-02T15:49:43.196Z,25.66
2018-07-02T15:53:08.442Z,26.70
2018-07-02T15:56:53.489Z,27.74
2018-07-02T16:00:09.626Z,28.57
2018-07-02T16:03:28.890Z,28.87
2018-07-02T16:06:51.847Z,29.61
2018-07-02T16:10:03.903Z,30.01
2018-07-02T16:16:45.757Z,30.35
2018-07-02T16:19:57.450Z,29.83
2018-07-02T16:26:45.812Z,29.25
2018-07-02T16:29:57.559Z,29.81
2018-07-02T16:33:18.306Z,29.89
2018-07-02T16:36:37.918Z,30.04
2018-07-02T16:40:03.776Z,30.01
2018-07-02T16:43:24.486Z,29.47
2018-07-02T16:46:42.374Z,28.93
2018-07-02T16:50:05.850Z,28.65
2018-07-02T16:53:28.012Z,29.06
2018-07-02T16:56:50.195Z,29.07
2018-07-02T16:59:59.803Z,29.26
2018-07-02T17:03:22.142Z,29.44
2018-07-02T17:06:44.282Z,29.52
2018-07-02T17:13:29.273Z,29.16
2018-07-02T17:16:33.622Z,28.42
2018-07-02T17:19:38.010Z,27.53
2018-07-02T17:22:42.768Z,27.22
2018-07-02T17:25:47.037Z,26.35
2018-07-02T17:28:51.392Z,25.58
2018-07-02T17:31:55.852Z,25.08
2018-07-02T17:35:00.222Z,24.65
2018-07-02T17:38:04.603Z,24.39
2018-07-02T17:41:08.951Z,24.13
2018-07-02T17:44:13.229Z,23.87
2018-07-02T17:47:17.534Z,23.71
2018-07-02T17:50:21.951Z,23.63
2018-07-02T17:53:26.299Z,23.59
2018-07-02T17:56:30.716Z,23.41
2018-07-02T17:59:35.057Z,23.25
2018-07-02T18:02:39.618Z,23.21
2018-07-02T18:05:44.224Z,23.06
2018-07-02T18:08:48.653Z,22.90
2018-07-02T18:11:53.041Z,22.88
2018-07-02T18:14:57.412Z,22.84
2018-07-02T18:18:01.822Z,22.77
2018-07-02T18:21:06.247Z,22.69
2018-07-02T18:24:11.039Z,22.60
2018-07-02T18:27:15.536Z,22.48
2018-07-02T18:30:20.234Z,22.39
2018-07-02T18:33:24.845Z,22.28
2018-07-02T18:36:29.442Z,22.18
2018-07-02T18:39:33.930Z,22.09
2018-07-02T18:42:38.300Z,22.02
2018-07-02T18:45:42.703Z,21.96
2018-07-02T18:48:47.066Z,21.92
2018-07-02T18:51:51.500Z,21.82
2018-07-02T18:54:56.277Z,21.79
2018-07-02T18:58:01.408Z,21.75
2018-07-02T19:01:05.792Z,21.65
2018-07-02T19:04:11.041Z,21.60
2018-07-02T19:07:15.522Z,21.55
2018-07-02T19:10:20.132Z,21.48
2018-07-02T19:13:24.511Z,21.32
2018-07-02T19:16:29.155Z,21.22
2018-07-02T19:19:33.493Z,21.15
2018-07-02T19:22:38.264Z,21.06
2018-07-02T19:25:43.748Z,20.99
2018-07-02T19:28:48.162Z,20.85
2018-07-02T19:31:52.528Z,20.75
2018-07-02T19:34:57.506Z,20.67
2018-07-02T19:38:02.046Z,20.58
2018-07-02T19:41:06.691Z,20.53
2018-07-02T19:44:11.725Z,20.48
2018-07-02T19:47:16.427Z,20.44
2018-07-02T19:50:20.857Z,20.36
2018-07-02T19:53:25.340Z,20.27
2018-07-02T19:56:29.524Z,20.16
2018-07-02T19:59:34.245Z,20.15
2018-07-02T20:02:38.867Z,20.10
2018-07-02T20:05:43.605Z,20.03
2018-07-02T20:08:48.194Z,20.02
2018-07-02T20:11:52.690Z,19.89
2018-07-02T20:14:58.227Z,19.84
2018-07-02T20:18:04.245Z,19.74
2018-07-02T20:21:08.817Z,19.69
2018-07-02T20:24:14.670Z,19.65
2018-07-02T20:27:20.348Z,19.58
2018-07-02T20:30:25.784Z,19.52
2018-07-02T20:33:31.097Z,19.43
2018-07-02T20:36:36.910Z,19.38
2018-07-02T20:39:42.417Z,19.32
2018-07-02T20:42:47.591Z,19.23
2018-07-02T20:45:53.103Z,19.21
2018-07-02T20:48:58.643Z,19.15
2018-07-02T20:52:04.015Z,19.12
2018-07-02T20:55:08.619Z,19.06
2018-07-02T20:58:13.140Z,19.01
2018-07-02T21:01:17.769Z,18.95
2018-07-02T21:04:22.180Z,18.92
2018-07-02T21:07:26.734Z,18.85
2018-07-02T21:10:31.247Z,18.80
2018-07-02T21:13:35.652Z,18.77
2018-07-02T21:16:40.273Z,18.74
2018-07-02T21:19:44.857Z,18.70
2018-07-02T21:22:49.423Z,18.65
2018-07-02T21:25:53.920Z,18.55
2018-07-02T21:28:58.480Z,18.52
2018-07-02T21:32:02.841Z,18.47
2018-07-02T21:35:08.197Z,18.46
2018-07-02T21:38:12.717Z,18.34
2018-07-02T21:41:17.512Z,18.17
2018-07-02T21:44:21.985Z,18.11
2018-07-02T21:47:27.091Z,18.03
2018-07-02T21:50:31.380Z,17.96
2018-07-02T21:53:35.784Z,17.92
2018-07-02T21:56:40.376Z,17.87
2018-07-02T21:59:44.925Z,17.73
2018-07-02T22:02:49.306Z,17.70
2018-07-02T22:05:53.917Z,17.62
2018-07-02T22:08:58.413Z,17.58
2018-07-02T22:12:03.664Z,17.53
2018-07-02T22:15:08.226Z,17.50
2018-07-02T22:18:12.749Z,17.46
2018-07-02T22:21:17.255Z,17.38
2018-07-02T22:24:21.905Z,17.32
2018-07-02T22:27:26.489Z,17.21
2018-07-02T22:30:31.022Z,17.05
2018-07-02T22:33:35.701Z,16.97
2018-07-02T22:36:40.258Z,16.91
2018-07-02T22:39:44.676Z,16.88
2018-07-02T22:42:49.365Z,16.81
2018-07-02T22:45:53.789Z,16.74
2018-07-02T22:48:58.191Z,16.68
2018-07-02T22:52:02.737Z,16.59
2018-07-02T22:55:07.335Z,16.56
2018-07-02T22:58:11.756Z,16.46
2018-07-02T23:01:16.185Z,16.38
2018-07-02T23:04:20.902Z,16.22
2018-07-02T23:07:25.389Z,16.09
2018-07-02T23:10:29.916Z,15.97
2018-07-02T23:13:34.457Z,15.94
2018-07-02T23:16:39.068Z,15.96
2018-07-02T23:19:43.609Z,16.00
2018-07-02T23:23:04.230Z,16.01
2018-07-02T23:26:08.996Z,15.96
2018-07-02T23:29:13.570Z,15.89
2018-07-02T23:32:18.107Z,15.89
2018-07-02T23:35:22.686Z,15.92
2018-07-02T23:38:27.098Z,15.90
2018-07-02T23:41:31.672Z,15.94
2018-07-02T23:44:36.149Z,15.97
2018-07-02T23:47:40.727Z,15.95
2018-07-02T23:50:45.561Z,15.93
2018-07-02T23:53:50.155Z,15.97
2018-07-02T23:56:54.392Z,15.95
2018-07-02T23:59:58.907Z,15.98
